Archival Weather

Vermilion Rgnl

Danville, Illinois (KDNV)

Report from: Tuesday, March 26, 2024 5:15 AM CDT
Current time: Sunday, July 14, 2024 5:31 AM CDT

Current weather – Weather history – Daily summaries
Weather forecast

Temperature12.1°C (53.8°F)
Dew point9.8°C (49.6°F)
Winds 24 kts (12.3 m/s, 27.6 mph) South (180°)
Wind gusts 32 kts (16.5 m/s, 36.8 mph)
Visibility10 mi. (16.1 km)
Clouds Ceiling: Overcast 1,300 ft. (396 m)
Altimeter29.50 in.Hg (999 mB)
Relative humidity86 %
Density altitude313 ft. (95 m)
Remarks Fully automated report
Automated weather observing station with precipitation discriminator
Flight conditions Marginal Visual Meteorological Conditions
Raw dataKDNV 261015Z AUTO 18024G32KT 10SM OVC013 12/10 A2950 RMK AO2 T01210098
An error has occurred. This application may no longer respond until reloaded. Reload 🗙